createdAt,value
2019-03-26T00:02:47.400Z,34
2019-03-26T00:07:49.964Z,35
2019-03-26T00:12:52.304Z,33
2019-03-26T00:17:54.928Z,32
2019-03-26T00:22:57.321Z,35
2019-03-26T00:27:59.713Z,36
2019-03-26T00:33:02.180Z,32
2019-03-26T00:43:07.352Z,31
2019-03-26T00:48:09.700Z,35
2019-03-26T00:53:12.036Z,31
2019-03-26T00:58:14.513Z,31
2019-03-26T01:03:17.402Z,23
2019-03-26T01:08:19.588Z,32
2019-03-26T01:13:21.893Z,33
2019-03-26T01:18:24.380Z,29
2019-03-26T01:23:26.869Z,27
2019-03-26T01:28:29.297Z,28
2019-03-26T01:33:31.776Z,24
2019-03-26T01:38:34.224Z,25
2019-03-26T01:43:36.689Z,23
2019-03-26T01:48:39.172Z,23
2019-03-26T01:53:41.606Z,26
2019-03-26T01:58:44.089Z,24
2019-03-26T02:03:46.646Z,22
2019-03-26T02:08:49.051Z,20
2019-03-26T02:13:51.472Z,27
2019-03-26T02:18:53.944Z,22
2019-03-26T02:23:56.399Z,23
2019-03-26T02:28:58.874Z,23
2019-03-26T02:34:01.399Z,25
2019-03-26T02:39:03.852Z,21
2019-03-26T02:44:06.351Z,20
2019-03-26T02:49:08.745Z,22
2019-03-26T02:54:11.294Z,20
2019-03-26T02:59:13.688Z,18
2019-03-26T03:04:16.264Z,20
2019-03-26T03:09:18.656Z,20
2019-03-26T03:14:21.212Z,26
2019-03-26T03:19:23.558Z,21
2019-03-26T03:24:26.306Z,23
2019-03-26T03:29:28.569Z,18
2019-03-26T03:34:30.916Z,17
2019-03-26T03:39:33.379Z,18
2019-03-26T03:44:35.833Z,19
2019-03-26T03:49:38.366Z,13
2019-03-26T03:54:40.756Z,15
2019-03-26T03:59:43.257Z,17
2019-03-26T04:04:45.727Z,15
2019-03-26T04:09:48.229Z,15
2019-03-26T04:14:50.925Z,16
2019-03-26T04:19:53.230Z,16
2019-03-26T04:24:55.537Z,15
2019-03-26T04:29:58.008Z,20
2019-03-26T04:35:00.543Z,21
2019-03-26T04:40:02.947Z,26
2019-03-26T04:45:05.676Z,26
2019-03-26T04:50:07.860Z,32
2019-03-26T04:55:10.412Z,34
2019-03-26T05:00:12.785Z,36
2019-03-26T05:05:15.302Z,32
2019-03-26T05:10:17.718Z,36
2019-03-26T05:15:20.474Z,36
2019-03-26T05:25:25.225Z,31
2019-03-26T05:30:27.595Z,29
2019-03-26T05:35:30.064Z,26
2019-03-26T05:40:37.540Z,24
2019-03-26T05:45:39.977Z,24
2019-03-26T05:50:37.507Z,27
2019-03-26T05:55:44.929Z,26
2019-03-26T06:00:42.375Z,35
2019-03-26T06:05:44.859Z,30
2019-03-26T06:10:47.346Z,30
2019-03-26T06:15:49.789Z,32
2019-03-26T06:20:52.225Z,31
2019-03-26T06:25:54.732Z,27
2019-03-26T06:30:57.186Z,28
2019-03-26T06:35:59.673Z,23
2019-03-26T06:41:02.106Z,21
2019-03-26T06:46:04.677Z,18
2019-03-26T06:51:07.015Z,15
2019-03-26T07:01:11.967Z,13
2019-03-26T07:06:14.430Z,12
2019-03-26T07:11:16.897Z,14
2019-03-26T07:16:19.345Z,12
2019-03-26T07:21:21.786Z,13
2019-03-26T07:26:24.229Z,13
2019-03-26T07:36:29.241Z,13
2019-03-26T07:41:31.621Z,12
2019-03-26T07:46:34.079Z,13
2019-03-26T07:51:36.525Z,12
2019-03-26T07:56:38.970Z,15
2019-03-26T08:01:41.438Z,25
2019-03-26T08:06:43.933Z,19
2019-03-26T08:11:46.391Z,15
2019-03-26T08:16:48.846Z,19
2019-03-26T08:21:51.345Z,17
2019-03-26T08:26:53.724Z,19
2019-03-26T08:31:56.471Z,18
2019-03-26T08:36:58.797Z,20
2019-03-26T08:42:01.098Z,19
2019-03-26T08:47:03.550Z,20
2019-03-26T08:52:06.025Z,12
2019-03-26T08:57:08.461Z,17
2019-03-26T09:02:11.241Z,13
2019-03-26T09:07:13.398Z,15
2019-03-26T09:12:16.085Z,17
2019-03-26T09:17:19.897Z,13
2019-03-26T09:22:20.766Z,15
2019-03-26T09:27:23.355Z,14
2019-03-26T09:32:25.820Z,12
2019-03-26T09:37:28.174Z,12
2019-03-26T09:42:30.601Z,11
2019-03-26T09:47:33.047Z,14
2019-03-26T09:52:35.518Z,13
2019-03-26T09:57:37.964Z,16
2019-03-26T10:02:42.933Z,16
2019-03-26T10:07:42.907Z,12
2019-03-26T10:12:45.348Z,11
2019-03-26T10:17:47.798Z,12
2019-03-26T10:22:50.250Z,14
2019-03-26T10:27:52.708Z,12
2019-03-26T10:32:55.170Z,11
2019-03-26T10:37:57.989Z,9
2019-03-26T10:43:00.112Z,8
2019-03-26T10:48:02.660Z,11
2019-03-26T10:53:05.000Z,15
2019-03-26T10:58:07.460Z,11
2019-03-26T11:03:09.935Z,11
2019-03-26T11:08:12.834Z,12
2019-03-26T11:13:14.867Z,12
2019-03-26T11:18:17.334Z,9
2019-03-26T11:23:19.743Z,9
2019-03-26T11:28:22.201Z,7
2019-03-26T11:33:24.727Z,7
2019-03-26T11:38:27.225Z,9
2019-03-26T11:43:29.575Z,5
2019-03-26T11:48:32.042Z,6
2019-03-26T11:53:34.543Z,9
2019-03-26T12:03:39.449Z,9
2019-03-26T12:08:42.227Z,7
2019-03-26T12:13:44.326Z,9
2019-03-26T12:18:46.779Z,3
2019-03-26T12:23:49.263Z,7
2019-03-26T12:33:54.159Z,4
2019-03-26T12:38:57.014Z,6
2019-03-26T12:43:59.065Z,4
2019-03-26T12:49:01.631Z,4
2019-03-26T12:54:04.133Z,6
2019-03-26T12:59:06.435Z,7
2019-03-26T13:14:13.807Z,6
2019-03-26T13:19:16.295Z,4
2019-03-26T13:24:18.724Z,5
2019-03-26T13:29:21.242Z,3
2019-03-26T13:34:23.718Z,5
2019-03-26T13:39:26.312Z,6
2019-03-26T13:44:28.543Z,10
2019-03-26T13:49:31.007Z,7
2019-03-26T13:54:33.460Z,4
2019-03-26T15:15:12.933Z,9
2019-03-26T15:20:15.270Z,4
2019-03-26T15:25:17.817Z,5
2019-03-26T15:30:20.172Z,7
2019-03-26T15:35:22.650Z,5
2019-03-26T15:40:25.384Z,10
2019-03-26T15:45:27.686Z,5
2019-03-26T15:50:30.028Z,8
2019-03-26T15:55:32.504Z,7
2019-03-26T16:00:35.052Z,6
2019-03-26T16:05:37.408Z,6
2019-03-26T16:10:40.159Z,7
2019-03-26T16:15:44.467Z,6
2019-03-26T16:20:44.777Z,9
2019-03-26T16:25:47.245Z,9
2019-03-26T16:30:49.745Z,5
2019-03-26T16:35:52.172Z,7
2019-03-26T16:40:54.628Z,6
2019-03-26T16:45:57.368Z,5
2019-03-26T16:50:59.613Z,9
2019-03-26T16:56:02.223Z,6
2019-03-26T17:01:04.461Z,5
2019-03-26T17:06:06.885Z,6
2019-03-26T17:11:09.352Z,6
2019-03-26T17:16:11.897Z,8
2019-03-26T17:21:14.273Z,9
2019-03-26T17:26:16.836Z,8
2019-03-26T17:31:19.206Z,7
2019-03-26T17:36:21.671Z,6
2019-03-26T17:41:24.220Z,8
2019-03-26T17:46:26.548Z,9
2019-03-26T17:51:29.001Z,5
2019-03-26T17:56:31.454Z,9
2019-03-26T18:01:33.958Z,13
2019-03-26T18:06:36.462Z,7
2019-03-26T18:11:38.944Z,7
2019-03-26T18:16:41.381Z,13
2019-03-26T18:21:51.133Z,8
2019-03-26T18:26:46.332Z,11
2019-03-26T18:31:48.806Z,9
2019-03-26T18:36:51.457Z,11
2019-03-26T18:41:53.593Z,12
2019-03-26T18:46:56.128Z,10
2019-03-26T18:51:58.558Z,8
2019-03-26T18:57:00.959Z,8
2019-03-26T19:02:03.438Z,9
2019-03-26T19:07:05.901Z,10
2019-03-26T19:12:08.347Z,9
2019-03-26T19:17:10.920Z,10
2019-03-26T19:22:13.367Z,8
2019-03-26T19:27:15.751Z,10
2019-03-26T19:32:18.236Z,11
2019-03-26T19:37:20.670Z,13
2019-03-26T19:42:23.149Z,9
2019-03-26T19:47:25.896Z,8
2019-03-26T19:52:28.057Z,6
2019-03-26T19:57:30.539Z,7
2019-03-26T20:02:32.982Z,9
2019-03-26T20:07:35.468Z,8
2019-03-26T20:12:37.983Z,7
2019-03-26T20:17:40.508Z,10
2019-03-26T20:22:42.882Z,8
2019-03-26T20:27:45.307Z,9
2019-03-26T20:32:47.761Z,5
2019-03-26T20:37:50.223Z,6
2019-03-26T20:42:52.698Z,9
2019-03-26T20:47:55.457Z,10
2019-03-26T20:52:57.606Z,11
2019-03-26T20:58:00.071Z,13
2019-03-26T21:03:02.563Z,10
2019-03-26T21:08:05.016Z,11
2019-03-26T21:13:07.519Z,10
2019-03-26T21:18:10.327Z,9
2019-03-26T21:23:12.398Z,11
2019-03-26T21:28:14.862Z,13
2019-03-26T21:33:17.362Z,12
2019-03-26T21:38:19.789Z,11
2019-03-26T21:43:22.252Z,13
2019-03-26T21:48:24.740Z,11
2019-03-26T21:53:27.209Z,12
2019-03-26T21:58:29.626Z,16
2019-03-26T22:03:32.141Z,14
2019-03-26T22:08:34.563Z,16
2019-03-26T22:13:37.034Z,11
2019-03-26T22:18:39.628Z,18
2019-03-26T22:23:41.971Z,13
2019-03-26T22:28:44.411Z,14
2019-03-26T22:33:46.917Z,17
2019-03-26T22:38:49.367Z,18
2019-03-26T22:43:54.912Z,16
2019-03-26T22:48:54.394Z,18
2019-03-26T22:53:56.761Z,21
2019-03-26T22:58:59.203Z,20
2019-03-26T23:04:01.655Z,20
2019-03-26T23:09:04.193Z,18
2019-03-26T23:14:06.565Z,18
2019-03-26T23:19:09.126Z,17
2019-03-26T23:24:11.497Z,17
2019-03-26T23:29:13.949Z,19
2019-03-26T23:34:16.785Z,21
2019-03-26T23:39:18.895Z,27
2019-03-26T23:44:25.939Z,20
2019-03-26T23:49:23.901Z,22
2019-03-26T23:54:26.285Z,22
2019-03-26T23:59:28.749Z,22
